Time;durP1;ratioP1;P1;durP2;ratioP2;P2;SDS_P1;SDS_P2;PMS_P1;PMS_P2;Temp;Humidity;BMP_temperature;BMP_pressure;BME280_temperature;BME280_humidity;BME280_pressure;Samples;Min_cycle;Max_cycle;Signal;HPM_P1;HPM_P2
2022/04/22 00:00:30;;;;;;;10.80;5.70;;;24.00;99.90;;;;;;5044144;28;20060;-48
2022/04/22 00:02:56;;;;;;;11.65;6.93;;;24.00;99.90;;;;;;5050480;28;20022;-49
2022/04/22 00:05:22;;;;;;;15.88;6.70;;;24.00;99.90;;;;;;5043510;28;20036;-48
2022/04/22 00:07:48;;;;;;;10.05;6.07;;;24.00;99.90;;;;;;5039400;28;20592;-46
2022/04/22 00:10:14;;;;;;;12.75;7.32;;;24.00;99.90;;;;;;5048658;28;20484;-48
2022/04/22 00:12:40;;;;;;;11.18;5.70;;;24.00;99.90;;;;;;5059969;28;20020;-48
2022/04/22 00:15:07;;;;;;;8.75;5.80;;;24.00;99.90;;;;;;5053304;28;20503;-48
2022/04/22 00:17:32;;;;;;;8.75;6.28;;;24.00;99.90;;;;;;5054543;28;20127;-46
2022/04/22 00:19:58;;;;;;;9.98;6.25;;;24.00;99.90;;;;;;5050868;28;20112;-47
2022/04/22 00:22:24;;;;;;;10.98;5.95;;;24.00;99.90;;;;;;5051863;28;20094;-48
2022/04/22 00:24:50;;;;;;;8.07;6.28;;;24.00;99.90;;;;;;5052613;28;20017;-47
2022/04/22 00:27:16;;;;;;;7.70;5.43;;;23.90;99.90;;;;;;5052730;28;20110;-47
2022/04/22 00:29:41;;;;;;;9.10;5.85;;;24.00;99.90;;;;;;5051145;28;20029;-48
2022/04/22 00:32:07;;;;;;;9.32;6.15;;;24.00;99.90;;;;;;5053029;28;20032;-44
2022/04/22 00:34:33;;;;;;;9.25;5.40;;;24.00;99.90;;;;;;5052552;28;20025;-44
2022/04/22 00:36:59;;;;;;;8.07;5.47;;;23.90;99.90;;;;;;5049522;28;20036;-43
2022/04/22 00:39:25;;;;;;;8.75;5.53;;;24.00;99.90;;;;;;5051419;28;20032;-44
2022/04/22 00:41:50;;;;;;;7.22;5.20;;;23.90;99.90;;;;;;5054925;28;20069;-44
2022/04/22 00:44:16;;;;;;;7.82;5.30;;;23.90;99.90;;;;;;5052741;28;20029;-44
2022/04/22 00:46:42;;;;;;;7.90;5.28;;;24.00;99.90;;;;;;5042949;28;20032;-44
2022/04/22 00:49:08;;;;;;;10.07;5.72;;;23.90;99.90;;;;;;5052655;28;20025;-44
2022/04/22 00:51:33;;;;;;;9.13;5.43;;;23.90;99.90;;;;;;5045456;28;20074;-44
2022/04/22 00:54:02;;;;;;;8.60;5.60;;;23.90;99.90;;;;;;5051887;28;20472;-44
2022/04/22 00:56:29;;;;;;;10.02;4.88;;;23.90;99.90;;;;;;5040514;28;20022;-43
2022/04/22 00:58:57;;;;;;;8.27;5.57;;;23.90;99.90;;;;;;5049095;28;20484;-43
2022/04/22 01:01:23;;;;;;;8.77;5.18;;;23.90;99.90;;;;;;5050095;28;20068;-43
2022/04/22 01:12:06;;;;;;;5.95;4.35;;;23.90;99.90;;;;;;5038097;28;20035;-45
2022/04/22 01:14:33;;;;;;;11.45;4.45;;;23.90;99.90;;;;;;5066013;28;20053;-44
2022/04/22 01:17:00;;;;;;;7.03;4.50;;;23.90;99.90;;;;;;5051746;28;20433;-43
2022/04/22 01:19:27;;;;;;;9.32;4.78;;;23.90;99.90;;;;;;5050570;28;20108;-44
2022/04/22 01:21:53;;;;;;;6.35;4.55;;;23.90;99.90;;;;;;5050687;28;20041;-45
2022/04/22 01:24:18;;;;;;;6.95;4.60;;;23.90;99.90;;;;;;5048797;28;20032;-43
2022/04/22 01:32:09;;;;;;;10.80;4.15;;;23.90;99.90;;;;;;5545487;22;20101;-41
2022/04/22 01:34:35;;;;;;;8.40;4.18;;;23.90;99.90;;;;;;5074481;28;20472;-42
2022/04/22 01:37:01;;;;;;;7.47;4.30;;;23.90;99.90;;;;;;5086434;28;20016;-42
2022/04/22 01:39:29;;;;;;;7.03;4.07;;;23.90;99.90;;;;;;5075328;28;20020;-42
2022/04/22 01:41:55;;;;;;;5.63;3.58;;;23.90;99.90;;;;;;5080177;28;20032;-44
2022/04/22 01:44:20;;;;;;;5.57;3.83;;;23.90;99.90;;;;;;5076544;28;20099;-42
2022/04/22 01:46:46;;;;;;;7.55;3.88;;;23.90;99.90;;;;;;5082300;28;20030;-43
2022/04/22 01:49:12;;;;;;;6.80;4.22;;;23.80;99.90;;;;;;5088601;28;20040;-43
2022/04/22 01:51:38;;;;;;;7.07;4.20;;;23.90;99.90;;;;;;5088398;28;20036;-43
2022/04/22 01:54:04;;;;;;;5.00;3.50;;;23.90;99.90;;;;;;5077957;28;20419;-44
2022/04/22 01:56:30;;;;;;;6.10;3.40;;;23.90;99.90;;;;;;5077987;28;20124;-44
2022/04/22 01:58:56;;;;;;;5.60;3.58;;;23.80;99.90;;;;;;5073640;28;20070;-44
2022/04/22 02:01:21;;;;;;;5.65;3.65;;;23.80;99.90;;;;;;5087593;28;20071;-44
2022/04/22 02:03:47;;;;;;;6.50;4.30;;;23.80;99.90;;;;;;5076961;28;20028;-44
2022/04/22 02:06:13;;;;;;;7.57;3.80;;;23.80;99.90;;;;;;5085249;28;20027;-45
2022/04/22 02:08:38;;;;;;;5.85;3.15;;;23.80;99.90;;;;;;5087681;28;20142;-44
2022/04/22 02:11:05;;;;;;;4.90;3.60;;;23.80;99.90;;;;;;5077453;28;20181;-44
2022/04/22 02:13:36;;;;;;;4.85;3.28;;;23.80;99.90;;;;;;5091222;28;20008;-42
2022/04/22 02:16:05;;;;;;;8.15;3.53;;;23.80;99.90;;;;;;5090755;28;20059;-43
2022/04/22 02:18:31;;;;;;;5.80;3.25;;;23.80;99.90;;;;;;5089778;28;20032;-43
2022/04/22 02:20:57;;;;;;;9.93;3.85;;;23.80;99.90;;;;;;5091253;28;20020;-43
2022/04/22 02:23:23;;;;;;;5.78;3.13;;;23.80;99.90;;;;;;5088740;28;20107;-43
2022/04/22 02:25:49;;;;;;;5.47;3.28;;;23.80;99.90;;;;;;5090606;28;20440;-43
2022/04/22 02:28:33;;;;;;;6.10;3.10;;;23.80;99.90;;;;;;5089558;28;20425;-44
2022/04/22 02:31:10;;;;;;;6.55;3.25;;;23.80;99.90;;;;;;5078873;28;20058;-44
2022/04/22 02:33:37;;;;;;;6.93;3.42;;;23.80;99.90;;;;;;5083887;28;20035;-42
2022/04/22 02:36:04;;;;;;;4.55;2.65;;;23.80;99.90;;;;;;5088152;28;20032;-42
2022/04/22 02:38:31;;;;;;;5.10;3.13;;;23.80;99.90;;;;;;5080886;28;20063;-42
2022/04/22 02:46:28;;;;;;;5.38;2.75;;;23.70;99.90;;;;;;5087804;28;20089;-42
2022/04/22 02:48:58;;;;;;;;;;;23.70;99.90;;;;;;5088654;28;20027;-42
2022/04/22 02:51:24;;;;;;;5.65;2.80;;;23.70;99.90;;;;;;5084714;28;19908;-42
2022/04/22 02:53:51;;;;;;;4.57;2.38;;;23.70;99.90;;;;;;5084000;28;20021;-41
2022/04/22 02:56:19;;;;;;;4.22;2.85;;;23.70;99.90;;;;;;5090693;28;20148;-42
2022/04/22 02:58:45;;;;;;;4.40;3.20;;;23.70;99.90;;;;;;5082982;28;20024;-41
2022/04/22 03:01:10;;;;;;;5.95;2.63;;;23.70;99.90;;;;;;5085888;28;20403;-42
2022/04/22 03:03:36;;;;;;;6.45;2.95;;;23.60;99.90;;;;;;5089036;28;20023;-42
2022/04/22 03:06:03;;;;;;;6.38;3.03;;;23.70;99.90;;;;;;5087668;28;20019;-42
2022/04/22 03:08:29;;;;;;;4.75;2.72;;;23.60;99.90;;;;;;5087129;28;20099;-42
2022/04/22 03:10:55;;;;;;;5.03;2.47;;;23.60;99.90;;;;;;5087856;28;20159;-42
2022/04/22 03:13:21;;;;;;;4.53;2.50;;;23.60;99.90;;;;;;5091520;28;20034;-42
2022/04/22 03:15:48;;;;;;;4.55;2.25;;;23.60;99.90;;;;;;5088269;28;20538;-42
2022/04/22 03:18:13;;;;;;;5.55;2.60;;;23.60;99.90;;;;;;5094618;28;20016;-42
2022/04/22 03:20:39;;;;;;;7.80;2.53;;;23.60;99.90;;;;;;5094073;28;20036;-42
2022/04/22 03:23:05;;;;;;;6.50;2.63;;;23.50;99.90;;;;;;5092541;28;20016;-42
2022/04/22 03:25:31;;;;;;;4.55;2.58;;;23.50;99.90;;;;;;5094264;28;20451;-42
2022/04/22 03:27:57;;;;;;;4.05;2.90;;;23.60;99.90;;;;;;5082582;28;20056;-42
2022/04/22 03:30:22;;;;;;;4.70;2.40;;;23.50;99.90;;;;;;5082647;28;20016;-42
2022/04/22 03:32:48;;;;;;;6.05;2.65;;;23.50;99.90;;;;;;5091966;28;20047;-42
2022/04/22 03:35:14;;;;;;;4.78;3.13;;;23.50;99.90;;;;;;5082904;28;20012;-42
2022/04/22 03:37:42;;;;;;;4.95;2.45;;;23.50;99.90;;;;;;5093773;28;20085;-42
2022/04/22 03:40:10;;;;;;;4.93;2.88;;;23.50;99.90;;;;;;5094337;28;20505;-42
2022/04/22 03:42:36;;;;;;;5.25;2.83;;;23.50;99.90;;;;;;5093102;28;20111;-42
2022/04/22 03:45:04;;;;;;;6.00;2.67;;;23.50;99.90;;;;;;5081336;28;20028;-42
2022/04/22 03:47:29;;;;;;;5.28;2.70;;;23.50;99.90;;;;;;5091351;28;20027;-42
2022/04/22 03:49:56;;;;;;;5.90;3.30;;;23.50;99.90;;;;;;5094311;28;20025;-42
2022/04/22 03:52:22;;;;;;;4.97;2.27;;;23.40;99.90;;;;;;5088602;28;20360;-42
2022/04/22 03:54:47;;;;;;;4.70;2.72;;;23.40;99.90;;;;;;5091299;28;20288;-42
2022/04/22 03:59:58;;;;;;;4.85;2.50;;;23.40;99.90;;;;;;5094120;28;20043;-43
2022/04/22 04:02:23;;;;;;;6.10;2.72;;;23.40;99.90;;;;;;5090707;28;20391;-43
2022/04/22 04:04:50;;;;;;;3.55;2.45;;;23.40;99.90;;;;;;5074101;28;20372;-43
2022/04/22 04:07:17;;;;;;;7.18;2.67;;;23.40;99.90;;;;;;5082727;28;20029;-43
2022/04/22 04:17:55;;;;;;;6.13;2.92;;;23.40;99.90;;;;;;5093036;28;20031;-44
2022/04/22 04:23:14;;;;;;;5.57;2.28;;;23.40;99.90;;;;;;5091098;28;20509;-43
2022/04/22 04:25:40;;;;;;;3.35;2.15;;;23.30;99.90;;;;;;5091592;28;20020;-42
2022/04/22 04:28:09;;;;;;;3.65;2.58;;;23.30;99.90;;;;;;5084620;28;20498;-49
2022/04/22 04:30:39;;;;;;;6.45;2.25;;;23.30;99.90;;;;;;5089560;28;20660;-43
2022/04/22 04:33:06;;;;;;;4.32;2.40;;;23.30;99.90;;;;;;5082627;28;20407;-43
2022/04/22 04:35:32;;;;;;;2.93;1.70;;;23.30;99.90;;;;;;5084259;28;20494;-42
2022/04/22 04:37:58;;;;;;;2.97;1.90;;;23.30;99.90;;;;;;5093237;28;20020;-43
2022/04/22 04:40:24;;;;;;;4.20;2.60;;;23.30;99.90;;;;;;5092910;28;20032;-44
2022/04/22 04:42:54;;;;;;;4.85;2.05;;;23.30;99.90;;;;;;5091061;28;20495;-44
2022/04/22 04:45:20;;;;;;;8.15;2.25;;;23.30;99.90;;;;;;5080385;28;20437;-43
2022/04/22 04:47:47;;;;;;;5.63;1.95;;;23.30;99.90;;;;;;5074309;28;20025;-43
2022/04/22 04:50:13;;;;;;;3.47;2.10;;;23.30;99.90;;;;;;5074522;28;20020;-43
2022/04/22 04:52:40;;;;;;;4.55;2.08;;;23.30;99.90;;;;;;5092446;28;20031;-43
2022/04/22 04:55:08;;;;;;;4.25;1.90;;;23.30;99.90;;;;;;5091317;28;20028;-43
2022/04/22 04:57:34;;;;;;;3.38;1.80;;;23.30;99.90;;;;;;5088049;28;20031;-43
2022/04/22 05:00:01;;;;;;;4.50;1.87;;;23.30;99.90;;;;;;5090061;28;20020;-43
2022/04/22 05:02:26;;;;;;;3.22;1.80;;;23.30;99.90;;;;;;5091185;28;20399;-43
2022/04/22 05:04:52;;;;;;;3.35;2.08;;;23.30;99.90;;;;;;5089227;28;20111;-42
2022/04/22 05:07:18;;;;;;;4.82;2.03;;;23.30;99.90;;;;;;5092165;28;20024;-42
2022/04/22 05:09:44;;;;;;;4.15;2.15;;;23.20;99.90;;;;;;5092686;28;20020;-42
2022/04/22 05:12:13;;;;;;;2.13;1.33;;;23.20;99.90;;;;;;5088717;28;20028;-42
2022/04/22 05:14:38;;;;;;;2.83;1.98;;;23.20;99.90;;;;;;5086857;28;20073;-43
2022/04/22 05:17:04;;;;;;;3.28;1.92;;;23.20;99.90;;;;;;5091525;28;20028;-43
2022/04/22 05:19:30;;;;;;;4.82;1.90;;;23.20;99.90;;;;;;5090986;28;20097;-43
2022/04/22 05:21:56;;;;;;;5.75;1.90;;;23.20;99.90;;;;;;5083955;28;20468;-43
2022/04/22 05:24:22;;;;;;;3.45;1.95;;;23.20;99.90;;;;;;5086101;28;20471;-45
2022/04/22 05:26:48;;;;;;;3.65;1.92;;;23.20;99.90;;;;;;5086547;28;20085;-44
2022/04/22 05:34:43;;;;;;;2.75;1.63;;;23.20;99.90;;;;;;5087504;28;20070;-42
2022/04/22 05:37:08;;;;;;;3.65;1.50;;;23.20;99.90;;;;;;5088543;28;20024;-43
2022/04/22 05:39:34;;;;;;;2.22;1.38;;;23.20;99.90;;;;;;5082131;28;20075;-43
2022/04/22 05:42:01;;;;;;;3.85;2.00;;;23.10;99.90;;;;;;5087531;28;20093;-42
2022/04/22 05:44:29;;;;;;;3.00;1.88;;;23.10;99.90;;;;;;5084665;28;20028;-42
2022/04/22 05:46:55;;;;;;;3.55;1.58;;;23.10;99.90;;;;;;5086152;28;20063;-42
2022/04/22 05:49:21;;;;;;;4.28;2.03;;;23.10;99.90;;;;;;5087688;28;20052;-42
2022/04/22 05:51:47;;;;;;;2.97;1.40;;;23.10;99.90;;;;;;5084259;28;20035;-43
2022/04/22 05:54:13;;;;;;;4.03;1.73;;;23.10;99.90;;;;;;5089198;28;20028;-42
2022/04/22 05:56:38;;;;;;;2.88;1.73;;;23.10;99.90;;;;;;5089424;28;20115;-43
2022/04/22 05:59:04;;;;;;;3.50;1.88;;;23.10;99.90;;;;;;5089385;28;20031;-43
2022/04/22 06:01:30;;;;;;;3.58;1.65;;;23.10;99.90;;;;;;5082081;28;20034;-43
2022/04/22 06:03:56;;;;;;;2.05;1.38;;;23.10;99.90;;;;;;5080211;28;20464;-42
2022/04/22 06:06:21;;;;;;;3.20;1.70;;;23.10;99.90;;;;;;5089267;28;20027;-42
2022/04/22 06:11:32;;;;;;;4.25;1.75;;;23.10;99.90;;;;;;5089690;28;20517;-43
2022/04/22 06:13:58;;;;;;;2.83;1.70;;;23.10;99.90;;;;;;5083068;28;20036;-42
2022/04/22 06:16:24;;;;;;;4.35;1.70;;;23.10;99.90;;;;;;5088445;28;20096;-43
2022/04/22 06:18:50;;;;;;;2.80;1.60;;;23.10;99.90;;;;;;5082289;28;20051;-42
2022/04/22 06:21:16;;;;;;;2.83;1.60;;;23.10;99.90;;;;;;5079821;28;20028;-42
2022/04/22 06:23:42;;;;;;;4.10;1.73;;;23.10;99.90;;;;;;5087191;28;20031;-43
2022/04/22 06:26:08;;;;;;;3.08;1.33;;;23.10;99.90;;;;;;5076831;28;20341;-43
2022/04/22 06:28:34;;;;;;;3.65;1.85;;;23.10;99.90;;;;;;5088079;28;20020;-43
2022/04/22 06:31:00;;;;;;;3.83;1.80;;;23.10;99.90;;;;;;5083565;28;20023;-43
2022/04/22 06:33:26;;;;;;;4.13;1.52;;;23.10;99.90;;;;;;5090672;28;20028;-43
2022/04/22 06:35:52;;;;;;;3.97;1.60;;;23.00;99.90;;;;;;5084604;28;20388;-43
2022/04/22 06:38:18;;;;;;;4.25;1.50;;;23.00;99.90;;;;;;5088939;28;20085;-43
2022/04/22 06:46:18;;;;;;;6.40;1.63;;;23.00;99.90;;;;;;5091335;28;20395;-41
2022/04/22 06:48:44;;;;;;;5.30;1.30;;;23.00;99.90;;;;;;5090923;28;20508;-41
2022/04/22 06:51:11;;;;;;;4.25;1.40;;;23.00;99.90;;;;;;5078394;28;20039;-42
2022/04/22 06:53:37;;;;;;;;;;;23.00;99.90;;;;;;5086764;28;20031;-42
2022/04/22 06:56:06;;;;;;;5.20;2.17;;;23.00;99.90;;;;;;5089201;28;19904;-41
2022/04/22 06:58:34;;;;;;;3.35;1.50;;;23.00;99.90;;;;;;5088131;28;20028;-42
2022/04/22 07:00:59;;;;;;;;;;;23.00;99.90;;;;;;5089550;28;20028;-42
2022/04/22 07:03:25;;;;;;;3.95;1.80;;;23.00;99.90;;;;;;5087870;28;20437;-42
2022/04/22 07:05:52;;;;;;;2.22;1.50;;;23.00;99.90;;;;;;5086272;28;20059;-42
2022/04/22 07:08:20;;;;;;;4.25;1.80;;;23.00;99.90;;;;;;5088830;28;20023;-42
2022/04/22 07:10:47;;;;;;;3.88;1.90;;;23.00;99.90;;;;;;5089302;28;20035;-42
2022/04/22 07:13:16;;;;;;;4.00;2.13;;;23.00;99.90;;;;;;5084485;28;20029;-46
2022/04/22 07:15:44;;;;;;;4.30;1.90;;;23.00;99.90;;;;;;5071775;28;20472;-42
2022/04/22 07:18:10;;;;;;;;;;;23.00;99.90;;;;;;5074844;28;20027;-43
2022/04/22 07:20:36;;;;;;;3.58;1.73;;;23.00;99.90;;;;;;5081569;28;19908;-43
2022/04/22 07:23:03;;;;;;;3.10;1.80;;;23.00;99.90;;;;;;5087372;28;20044;-43
2022/04/22 07:25:29;;;;;;;4.70;2.70;;;23.00;99.90;;;;;;5090708;28;20566;-43
2022/04/22 07:27:55;;;;;;;4.18;2.35;;;23.00;99.90;;;;;;5090482;28;20069;-43
2022/04/22 07:30:22;;;;;;;6.85;2.25;;;23.00;99.90;;;;;;5077136;28;20028;-43
2022/04/22 07:32:49;;;;;;;3.40;1.92;;;23.00;99.90;;;;;;5081117;28;20129;-43
2022/04/22 07:35:20;;;;;;;3.30;1.83;;;23.00;99.90;;;;;;5080089;28;20028;-43
2022/04/22 07:37:51;;;;;;;3.20;1.88;;;23.00;99.90;;;;;;5083583;28;20025;-43
2022/04/22 07:40:21;;;;;;;3.35;1.95;;;23.00;99.90;;;;;;5075957;28;20020;-43
2022/04/22 07:48:22;;;;;;;4.45;2.22;;;23.00;99.90;;;;;;5090911;28;20047;-42
2022/04/22 07:50:48;;;;;;;3.10;1.63;;;23.00;99.90;;;;;;5087936;28;20445;-43
2022/04/22 07:53:15;;;;;;;3.22;2.13;;;23.00;99.90;;;;;;5089720;28;20467;-42
2022/04/22 07:55:41;;;;;;;4.10;1.98;;;23.00;99.90;;;;;;5086708;28;20074;-42
2022/04/22 07:58:10;;;;;;;6.05;1.98;;;23.00;99.90;;;;;;5091784;28;20407;-42
2022/04/22 08:00:38;;;;;;;3.28;1.77;;;23.00;99.90;;;;;;5091123;28;20028;-42
2022/04/22 08:03:04;;;;;;;6.03;2.25;;;23.00;99.90;;;;;;5092885;28;20036;-42
2022/04/22 08:05:31;;;;;;;4.03;2.25;;;23.00;99.90;;;;;;5089707;28;20020;-42
2022/04/22 08:07:57;;;;;;;4.43;2.03;;;23.00;99.90;;;;;;5092545;28;20075;-42
2022/04/22 08:10:23;;;;;;;2.25;1.70;;;23.00;99.90;;;;;;5093362;28;20499;-42
2022/04/22 08:12:49;;;;;;;3.47;2.00;;;23.00;99.90;;;;;;5091147;28;20057;-43
2022/04/22 08:15:15;;;;;;;3.35;1.90;;;23.00;99.90;;;;;;5084781;28;20057;-43
2022/04/22 08:17:40;;;;;;;4.28;2.60;;;23.00;99.90;;;;;;5088886;28;20020;-43
2022/04/22 08:20:07;;;;;;;5.80;2.40;;;23.00;99.90;;;;;;5086841;28;20024;-42
2022/04/22 08:22:33;;;;;;;5.78;3.00;;;23.00;99.90;;;;;;5074364;28;20112;-43
2022/04/22 08:25:00;;;;;;;4.38;2.58;;;23.00;99.90;;;;;;5089655;28;20115;-42
2022/04/22 08:27:26;;;;;;;5.22;2.80;;;23.00;99.90;;;;;;5084103;28;20025;-42
2022/04/22 08:29:53;;;;;;;6.18;2.95;;;23.00;99.90;;;;;;5091229;28;20360;-42
2022/04/22 08:32:19;;;;;;;6.20;3.25;;;23.00;99.90;;;;;;5082106;28;20098;-42
2022/04/22 08:34:45;;;;;;;6.78;3.15;;;23.00;99.90;;;;;;5079645;28;20020;-42
2022/04/22 08:37:11;;;;;;;5.38;2.72;;;23.00;99.90;;;;;;5091867;28;20023;-42
2022/04/22 08:39:37;;;;;;;5.68;3.38;;;23.00;99.90;;;;;;5092592;28;20031;-42
2022/04/22 08:42:03;;;;;;;6.22;3.67;;;23.00;99.90;;;;;;5092625;28;20036;-42
2022/04/22 08:44:30;;;;;;;6.47;3.40;;;23.00;99.90;;;;;;5086299;28;20703;-42
2022/04/22 08:50:01;;;;;;;4.88;3.13;;;23.00;99.90;;;;;;5086333;28;20036;-43
2022/04/22 08:52:33;;;;;;;4.72;2.90;;;23.00;99.90;;;;;;5088696;28;20028;-42
2022/04/22 08:55:00;;;;;;;6.93;3.45;;;23.00;99.90;;;;;;5092788;28;20052;-42
2022/04/22 08:57:28;;;;;;;3.92;2.70;;;23.00;99.90;;;;;;5091157;28;20039;-42
2022/04/22 09:00:01;;;;;;;5.78;3.20;;;23.00;99.90;;;;;;5092336;28;20028;-42
2022/04/22 09:02:28;;;;;;;7.20;3.88;;;23.00;99.90;;;;;;5090219;28;20524;-43
2022/04/22 09:04:53;;;;;;;6.60;4.50;;;23.00;99.90;;;;;;5080856;28;20471;-43
2022/04/22 09:07:22;;;;;;;5.25;3.63;;;23.00;99.90;;;;;;5089211;28;20027;-42
2022/04/22 09:09:49;;;;;;;6.57;4.13;;;23.00;99.90;;;;;;5074897;28;20021;-42
2022/04/22 09:12:17;;;;;;;;;;;23.00;99.90;;;;;;5084661;28;20036;-42
2022/04/22 09:14:48;;;;;;;7.18;3.83;;;22.90;99.90;;;;;;5081637;28;20394;-42
2022/04/22 09:17:33;;;;;;;6.03;3.80;;;23.00;99.90;;;;;;5084278;28;20051;-43
2022/04/22 09:20:01;;;;;;;6.03;3.33;;;22.90;99.90;;;;;;5102015;28;20059;-42
2022/04/22 09:22:29;;;;;;;5.97;3.55;;;22.90;99.90;;;;;;5076473;28;20032;-42
2022/04/22 09:24:57;;;;;;;5.65;3.80;;;22.90;99.90;;;;;;5089782;28;20054;-42
2022/04/22 09:27:36;;;;;;;6.55;3.50;;;22.90;99.90;;;;;;5078377;28;20513;-43
2022/04/22 09:30:04;;;;;;;6.13;3.58;;;22.90;99.90;;;;;;5089634;28;20140;-42
2022/04/22 09:32:32;;;;;;;6.03;3.13;;;22.90;99.90;;;;;;5081387;28;20098;-43
2022/04/22 09:35:06;;;;;;;;;;;22.90;99.90;;;;;;5084112;28;20020;-42
2022/04/22 09:43:00;;;;;;;5.95;3.90;;;22.90;99.90;;;;;;5092265;28;20498;-42
2022/04/22 09:45:38;;;;;;;5.53;3.63;;;22.90;99.90;;;;;;5089383;28;20032;-42
2022/04/22 09:48:16;;;;;;;5.07;4.03;;;22.90;99.90;;;;;;5075894;28;20031;-42
2022/04/22 09:50:55;;;;;;;5.97;3.92;;;22.90;99.90;;;;;;5087667;28;20043;-43
2022/04/22 09:53:34;;;;;;;5.55;3.83;;;22.90;99.90;;;;;;5091044;28;20451;-43
2022/04/22 09:56:08;;;;;;;5.53;4.13;;;22.90;99.90;;;;;;5089780;28;20016;-42
2022/04/22 09:58:34;;;;;;;6.30;4.05;;;22.90;99.90;;;;;;5089375;28;20054;-42
2022/04/22 10:01:03;;;;;;;9.50;4.32;;;22.90;99.90;;;;;;5091548;28;20479;-43
2022/04/22 10:03:37;;;;;;;6.75;4.25;;;22.90;99.90;;;;;;5081993;28;20036;-43
2022/04/22 10:06:05;;;;;;;6.03;4.32;;;22.90;99.90;;;;;;5074260;28;20028;-42
2022/04/22 10:08:35;;;;;;;4.97;3.75;;;22.90;99.90;;;;;;5083876;28;20025;-42
2022/04/22 10:11:04;;;;;;;6.60;4.63;;;22.90;99.90;;;;;;5087844;28;20424;-42
2022/04/22 10:13:52;;;;;;;8.05;3.72;;;22.90;99.90;;;;;;5073872;28;20082;-43
2022/04/22 10:16:18;;;;;;;6.82;3.92;;;22.90;99.90;;;;;;5089038;28;20043;-42
2022/04/22 10:18:44;;;;;;;6.95;4.13;;;22.90;99.90;;;;;;5088540;28;20058;-42
2022/04/22 10:21:10;;;;;;;5.05;3.92;;;23.00;99.90;;;;;;5081155;28;20029;-42
2022/04/22 10:23:36;;;;;;;6.30;3.70;;;23.00;99.90;;;;;;5078729;28;20013;-42
2022/04/22 10:26:05;;;;;;;4.70;3.45;;;23.00;99.90;;;;;;5085735;28;20031;-41
2022/04/22 10:28:31;;;;;;;5.68;3.92;;;23.00;99.90;;;;;;5081657;28;20023;-42
2022/04/22 10:31:01;;;;;;;6.20;4.05;;;23.00;99.90;;;;;;5084370;28;20025;-41
2022/04/22 10:33:37;;;;;;;7.00;3.58;;;23.00;99.90;;;;;;5090625;28;20032;-42
2022/04/22 10:36:05;;;;;;;7.28;4.00;;;23.00;99.90;;;;;;5089675;28;20487;-42
2022/04/22 10:38:39;;;;;;;7.03;4.13;;;23.00;99.90;;;;;;5091156;28;20020;-42
2022/04/22 10:41:20;;;;;;;6.90;4.03;;;23.00;99.90;;;;;;5091042;28;20024;-42
2022/04/22 10:49:38;;;;;;;5.75;4.22;;;23.10;99.90;;;;;;5082490;28;20120;-42
2022/04/22 10:52:14;;;;;;;6.85;3.45;;;23.20;99.90;;;;;;5089109;28;20387;-42
2022/04/22 10:54:55;;;;;;;4.88;3.20;;;23.20;99.90;;;;;;5088367;28;20449;-42
2022/04/22 10:57:21;;;;;;;5.18;3.45;;;23.20;99.90;;;;;;5089505;28;20117;-41
2022/04/22 11:00:07;;;;;;;10.45;4.15;;;23.20;99.90;;;;;;5082156;28;20056;-42
2022/04/22 11:02:34;;;;;;;5.45;3.55;;;23.20;99.90;;;;;;5087816;28;20125;-42
2022/04/22 11:05:18;;;;;;;5.28;3.35;;;23.30;99.90;;;;;;5090264;28;20024;-42
2022/04/22 11:07:50;;;;;;;5.18;3.53;;;23.30;99.90;;;;;;5078674;28;20107;-42
2022/04/22 11:10:21;;;;;;;7.82;3.50;;;23.30;99.90;;;;;;5089310;28;20111;-41
2022/04/22 11:12:56;;;;;;;4.82;3.45;;;23.40;99.90;;;;;;5087595;28;20107;-49
2022/04/22 11:15:44;;;;;;;7.35;3.72;;;23.40;99.90;;;;;;5089359;28;20047;-48
2022/04/22 11:18:13;;;;;;;;;;;23.40;99.90;;;;;;5086803;28;20034;-50
2022/04/22 11:20:50;;;;;;;8.52;3.08;;;23.50;99.90;;;;;;5078729;28;19919;-50
2022/04/22 11:23:16;;;;;;;5.47;2.97;;;23.50;99.90;;;;;;5082071;28;20028;-50
2022/04/22 11:25:43;;;;;;;4.50;2.70;;;23.50;99.90;;;;;;5080191;28;20028;-50
2022/04/22 11:28:09;;;;;;;8.32;3.47;;;23.50;99.90;;;;;;5090010;28;20020;-49
2022/04/22 11:30:36;;;;;;;8.02;2.35;;;23.50;99.90;;;;;;5083928;28;20032;-49
2022/04/22 11:33:24;;;;;;;6.27;2.70;;;23.50;99.90;;;;;;5094329;28;20086;-50
2022/04/22 11:35:57;;;;;;;10.52;4.63;;;23.60;99.90;;;;;;5079844;28;20276;-51
2022/04/22 11:38:23;;;;;;;10.93;4.85;;;23.60;99.90;;;;;;5075315;28;20043;-50
2022/04/22 11:40:52;;;;;;;9.57;3.95;;;23.60;99.90;;;;;;5076389;28;20025;-48
2022/04/22 11:43:18;;;;;;;7.65;3.78;;;23.60;99.90;;;;;;5082800;28;20468;-49
2022/04/22 11:45:49;;;;;;;6.60;3.42;;;23.50;99.90;;;;;;5088127;28;20012;-47
2022/04/22 11:48:20;;;;;;;7.25;3.58;;;23.50;99.90;;;;;;5079291;28;20021;-48
2022/04/22 11:50:46;;;;;;;9.55;4.20;;;23.50;99.90;;;;;;5082670;28;20035;-48
2022/04/22 11:53:15;;;;;;;8.23;4.50;;;23.50;99.90;;;;;;5093987;28;20024;-51
2022/04/22 11:55:43;;;;;;;7.90;3.17;;;23.50;99.90;;;;;;5087686;28;20374;-51
2022/04/22 11:58:10;;;;;;;9.00;3.38;;;23.40;99.90;;;;;;5102317;28;20043;-50
2022/04/22 12:06:13;;;;;;;5.40;2.60;;;23.30;99.90;;;;;;5084721;28;20035;-48
2022/04/22 12:08:56;;;;;;;9.90;4.18;;;23.30;99.90;;;;;;5080089;28;20016;-50
2022/04/22 12:11:23;;;;;;;18.92;8.57;;;23.30;99.90;;;;;;5092932;28;20039;-49
2022/04/22 12:13:50;;;;;;;24.95;10.95;;;23.30;99.90;;;;;;5093103;28;20032;-50
2022/04/22 12:16:20;;;;;;;23.27;13.60;;;23.30;99.90;;;;;;5075993;28;20107;-48
2022/04/22 12:18:50;;;;;;;22.80;11.32;;;23.30;99.90;;;;;;5072833;28;20024;-47
2022/04/22 12:21:18;;;;;;;21.65;12.88;;;23.30;99.90;;;;;;5084564;28;20443;-50
2022/04/22 12:23:46;;;;;;;19.48;12.27;;;23.40;99.90;;;;;;5072537;28;20016;-50
2022/04/22 12:26:23;;;;;;;23.42;11.05;;;23.40;99.90;;;;;;5087762;28;20058;-50
2022/04/22 12:29:13;;;;;;;20.30;10.30;;;23.40;99.90;;;;;;5084435;28;20384;-50
2022/04/22 12:31:50;;;;;;;55.92;25.92;;;23.40;99.90;;;;;;5080164;28;20519;-52
2022/04/22 12:34:36;;;;;;;75.15;24.38;;;23.50;99.90;;;;;;5071210;28;20380;-50
2022/04/22 12:37:06;;;;;;;87.05;31.20;;;23.50;99.90;;;;;;5083854;28;20040;-51
2022/04/22 12:39:52;;;;;;;73.40;26.80;;;23.50;99.90;;;;;;5092953;28;20031;-50
2022/04/22 12:42:18;;;;;;;116.43;29.20;;;23.50;99.90;;;;;;5091599;28;20048;-51
2022/04/22 12:52:08;;;;;;;56.22;24.55;;;23.60;99.90;;;;;;5092351;28;20020;-52
2022/04/22 12:53:34;;;;;;;16.73;5.35;;;23.50;99.90;;;;;;5089931;28;20031;-47
2022/04/22 12:56:02;;;;;;;14.63;4.63;;;23.30;99.90;;;;;;5086655;28;20602;-45
2022/04/22 12:58:28;;;;;;;13.48;4.85;;;23.10;99.90;;;;;;5092633;28;20100;-50
2022/04/22 13:00:54;;;;;;;16.52;4.82;;;22.90;99.90;;;;;;5092722;28;20028;-51
2022/04/22 13:03:23;;;;;;;12.55;5.30;;;22.80;99.90;;;;;;5091948;28;20037;-50
2022/04/22 13:05:49;;;;;;;49.75;16.20;;;22.70;99.90;;;;;;5092288;28;20032;-50
2022/04/22 13:08:15;;;;;;;26.08;9.02;;;22.80;99.90;;;;;;5092381;28;20032;-49
2022/04/22 13:10:42;;;;;;;31.75;10.65;;;22.80;99.90;;;;;;5092403;28;20416;-50
2022/04/22 13:13:08;;;;;;;33.38;11.75;;;22.80;99.90;;;;;;5091409;28;20016;-49
2022/04/22 13:15:34;;;;;;;33.92;13.35;;;22.90;99.90;;;;;;5072184;28;20024;-50
2022/04/22 13:18:00;;;;;;;23.05;11.40;;;22.90;99.90;;;;;;5080642;28;20083;-50
2022/04/22 13:20:26;;;;;;;22.52;11.80;;;23.00;99.90;;;;;;5088717;28;20356;-49
2022/04/22 13:22:52;;;;;;;29.48;11.68;;;23.00;99.90;;;;;;5087410;28;20040;-49
2022/04/22 13:25:19;;;;;;;26.95;11.13;;;23.00;99.90;;;;;;5088673;28;20096;-50
2022/04/22 13:27:45;;;;;;;27.25;11.60;;;23.10;99.90;;;;;;5092030;28;20028;-50
2022/04/22 13:30:13;;;;;;;24.40;10.98;;;23.10;99.90;;;;;;5091797;28;20027;-50
2022/04/22 13:32:39;;;;;;;24.50;11.15;;;23.10;99.90;;;;;;5092778;28;20068;-50
2022/04/22 13:35:05;;;;;;;24.20;11.88;;;23.10;99.90;;;;;;5109062;28;20421;-50
2022/04/22 13:37:32;;;;;;;28.65;11.05;;;23.10;99.90;;;;;;5088422;28;20024;-49
2022/04/22 13:39:59;;;;;;;22.63;11.52;;;23.20;99.90;;;;;;5091749;28;20028;-49
2022/04/22 13:42:24;;;;;;;22.67;12.98;;;23.20;99.90;;;;;;5085439;28;20148;-49
2022/04/22 13:53:04;;;;;;;21.98;11.23;;;23.20;99.90;;;;;;5085005;28;20039;-50
2022/04/22 13:55:30;;;;;;;17.10;10.68;;;23.20;99.90;;;;;;5091355;28;20017;-50
2022/04/22 13:57:58;;;;;;;22.15;11.95;;;23.20;99.90;;;;;;5082797;28;20032;-50
2022/04/22 14:00:24;;;;;;;20.17;10.45;;;23.20;99.90;;;;;;5091472;27;20372;-49
2022/04/22 14:02:49;;;;;;;19.35;10.57;;;23.20;99.90;;;;;;5088863;28;20040;-50
2022/04/22 14:05:21;;;;;;;20.08;10.75;;;23.20;99.90;;;;;;5092111;28;20517;-50
2022/04/22 14:07:50;;;;;;;20.73;11.32;;;23.10;99.90;;;;;;5091397;28;20032;-51
2022/04/22 14:10:17;;;;;;;24.75;11.18;;;23.20;99.90;;;;;;5089552;28;20031;-51
2022/04/22 14:12:43;;;;;;;20.60;10.85;;;23.10;99.90;;;;;;5080709;28;20085;-49
2022/04/22 14:15:09;;;;;;;18.15;9.05;;;23.10;99.90;;;;;;5090590;28;20472;-48